sensor_id;sensor_type;location;lat;lon;timestamp;temperature;humidity
9658;DHT22;4867;48.112;11.622;2023-11-21T00:01:33;7.60;99.90
9658;DHT22;4867;48.112;11.622;2023-11-21T00:04:01;7.60;99.90
9658;DHT22;4867;48.112;11.622;2023-11-21T00:06:28;7.60;99.90
9658;DHT22;4867;48.112;11.622;2023-11-21T00:08:57;7.70;99.90
9658;DHT22;4867;48.112;11.622;2023-11-21T00:11:24;7.70;99.90
9658;DHT22;4867;48.112;11.622;2023-11-21T00:13:52;7.70;99.90
9658;DHT22;4867;48.112;11.622;2023-11-21T00:16:19;7.70;99.90
9658;DHT22;4867;48.112;11.622;2023-11-21T00:18:47;7.60;99.90
9658;DHT22;4867;48.112;11.622;2023-11-21T00:21:14;7.50;99.90
9658;DHT22;4867;48.112;11.622;2023-11-21T00:23:41;7.60;99.90
9658;DHT22;4867;48.112;11.622;2023-11-21T00:26:08;7.40;99.90
9658;DHT22;4867;48.112;11.622;2023-11-21T00:28:36;7.40;99.90
9658;DHT22;4867;48.112;11.622;2023-11-21T00:31:03;7.40;99.90
9658;DHT22;4867;48.112;11.622;2023-11-21T00:33:31;7.40;99.90
9658;DHT22;4867;48.112;11.622;2023-11-21T00:35:59;7.40;99.90
9658;DHT22;4867;48.112;11.622;2023-11-21T00:38:27;7.40;99.90
9658;DHT22;4867;48.112;11.622;2023-11-21T00:40:57;7.40;99.90
9658;DHT22;4867;48.112;11.622;2023-11-21T00:43:26;7.50;99.90
9658;DHT22;4867;48.112;11.622;2023-11-21T00:45:53;7.50;99.90
9658;DHT22;4867;48.112;11.622;2023-11-21T00:48:21;7.60;99.90
9658;DHT22;4867;48.112;11.622;2023-11-21T00:50:48;7.60;99.90
9658;DHT22;4867;48.112;11.622;2023-11-21T00:53:17;7.60;99.90
9658;DHT22;4867;48.112;11.622;2023-11-21T00:55:44;7.60;99.90
9658;DHT22;4867;48.112;11.622;2023-11-21T00:58:12;7.60;99.90
9658;DHT22;4867;48.112;11.622;2023-11-21T01:00:39;7.70;99.90
9658;DHT22;4867;48.112;11.622;2023-11-21T01:03:06;7.60;99.90
9658;DHT22;4867;48.112;11.622;2023-11-21T01:05:35;7.60;99.90
9658;DHT22;4867;48.112;11.622;2023-11-21T01:08:02;7.70;99.90
9658;DHT22;4867;48.112;11.622;2023-11-21T01:10:30;7.70;99.90
9658;DHT22;4867;48.112;11.622;2023-11-21T01:12:57;7.60;99.90
9658;DHT22;4867;48.112;11.622;2023-11-21T01:15:24;7.60;99.90
9658;DHT22;4867;48.112;11.622;2023-11-21T01:17:53;7.70;99.90
9658;DHT22;4867;48.112;11.622;2023-11-21T01:20:20;7.70;99.90
9658;DHT22;4867;48.112;11.622;2023-11-21T01:22:47;7.60;99.90
9658;DHT22;4867;48.112;11.622;2023-11-21T01:25:16;7.60;99.90
9658;DHT22;4867;48.112;11.622;2023-11-21T01:27:43;7.50;99.90
9658;DHT22;4867;48.112;11.622;2023-11-21T01:30:11;7.50;99.90
9658;DHT22;4867;48.112;11.622;2023-11-21T01:32:39;7.50;99.90
9658;DHT22;4867;48.112;11.622;2023-11-21T01:35:07;7.40;99.90
9658;DHT22;4867;48.112;11.622;2023-11-21T01:37:37;7.40;99.90
9658;DHT22;4867;48.112;11.622;2023-11-21T01:40:05;7.40;99.90
9658;DHT22;4867;48.112;11.622;2023-11-21T01:42:41;7.30;99.90
9658;DHT22;4867;48.112;11.622;2023-11-21T01:45:10;7.30;99.90
9658;DHT22;4867;48.112;11.622;2023-11-21T01:47:41;7.30;99.90
9658;DHT22;4867;48.112;11.622;2023-11-21T01:50:09;7.30;99.90
9658;DHT22;4867;48.112;11.622;2023-11-21T01:52:39;7.30;99.90
9658;DHT22;4867;48.112;11.622;2023-11-21T01:55:08;7.30;99.90
9658;DHT22;4867;48.112;11.622;2023-11-21T01:57:36;7.30;99.90
9658;DHT22;4867;48.112;11.622;2023-11-21T02:00:07;7.30;99.90
9658;DHT22;4867;48.112;11.622;2023-11-21T02:02:47;7.20;99.90
9658;DHT22;4867;48.112;11.622;2023-11-21T02:05:16;7.20;99.90
9658;DHT22;4867;48.112;11.622;2023-11-21T02:07:46;7.20;99.90
9658;DHT22;4867;48.112;11.622;2023-11-21T02:10:16;7.20;99.90
9658;DHT22;4867;48.112;11.622;2023-11-21T02:12:44;7.30;99.90
9658;DHT22;4867;48.112;11.622;2023-11-21T02:15:13;7.20;99.90
9658;DHT22;4867;48.112;11.622;2023-11-21T02:17:49;7.20;99.90
9658;DHT22;4867;48.112;11.622;2023-11-21T02:20:22;7.30;99.90
9658;DHT22;4867;48.112;11.622;2023-11-21T02:22:56;7.20;99.90
9658;DHT22;4867;48.112;11.622;2023-11-21T02:25:29;7.20;99.90
9658;DHT22;4867;48.112;11.622;2023-11-21T02:27:58;7.20;99.90
9658;DHT22;4867;48.112;11.622;2023-11-21T02:30:26;7.20;99.90
9658;DHT22;4867;48.112;11.622;2023-11-21T02:33:00;7.30;99.90
9658;DHT22;4867;48.112;11.622;2023-11-21T02:35:28;7.20;99.90
9658;DHT22;4867;48.112;11.622;2023-11-21T02:37:59;7.20;99.90
9658;DHT22;4867;48.112;11.622;2023-11-21T02:40:26;7.30;99.90
9658;DHT22;4867;48.112;11.622;2023-11-21T02:42:54;7.20;99.90
9658;DHT22;4867;48.112;11.622;2023-11-21T02:45:22;7.20;99.90
9658;DHT22;4867;48.112;11.622;2023-11-21T02:47:50;7.20;99.90
9658;DHT22;4867;48.112;11.622;2023-11-21T02:50:21;7.20;99.90
9658;DHT22;4867;48.112;11.622;2023-11-21T02:52:51;7.10;99.90
9658;DHT22;4867;48.112;11.622;2023-11-21T02:55:20;7.10;99.90
9658;DHT22;4867;48.112;11.622;2023-11-21T02:57:47;7.10;99.90
9658;DHT22;4867;48.112;11.622;2023-11-21T03:00:15;7.10;99.90
9658;DHT22;4867;48.112;11.622;2023-11-21T03:02:43;7.20;99.90
9658;DHT22;4867;48.112;11.622;2023-11-21T03:05:11;7.20;99.90
9658;DHT22;4867;48.112;11.622;2023-11-21T03:07:39;7.20;99.90
9658;DHT22;4867;48.112;11.622;2023-11-21T03:10:08;7.20;99.90
9658;DHT22;4867;48.112;11.622;2023-11-21T03:12:37;7.30;99.90
9658;DHT22;4867;48.112;11.622;2023-11-21T03:15:06;7.20;99.90
9658;DHT22;4867;48.112;11.622;2023-11-21T03:17:33;7.20;99.90
9658;DHT22;4867;48.112;11.622;2023-11-21T03:20:01;7.20;99.90
9658;DHT22;4867;48.112;11.622;2023-11-21T03:22:28;7.20;99.90
9658;DHT22;4867;48.112;11.622;2023-11-21T03:24:55;7.20;99.90
9658;DHT22;4867;48.112;11.622;2023-11-21T03:27:23;7.20;99.90
9658;DHT22;4867;48.112;11.622;2023-11-21T03:29:50;7.20;99.90
9658;DHT22;4867;48.112;11.622;2023-11-21T03:32:17;7.30;99.90
9658;DHT22;4867;48.112;11.622;2023-11-21T03:34:56;7.20;99.90
9658;DHT22;4867;48.112;11.622;2023-11-21T03:37:25;7.20;99.90
9658;DHT22;4867;48.112;11.622;2023-11-21T03:39:55;7.20;99.90
9658;DHT22;4867;48.112;11.622;2023-11-21T03:42:24;7.20;99.90
9658;DHT22;4867;48.112;11.622;2023-11-21T03:44:54;7.30;99.90
9658;DHT22;4867;48.112;11.622;2023-11-21T03:47:21;7.20;99.90
9658;DHT22;4867;48.112;11.622;2023-11-21T03:49:49;7.20;99.90
9658;DHT22;4867;48.112;11.622;2023-11-21T03:52:16;7.30;99.90
9658;DHT22;4867;48.112;11.622;2023-11-21T03:54:44;7.20;99.90
9658;DHT22;4867;48.112;11.622;2023-11-21T03:57:12;7.30;99.90
9658;DHT22;4867;48.112;11.622;2023-11-21T03:59:43;7.30;99.90
9658;DHT22;4867;48.112;11.622;2023-11-21T04:02:10;7.20;99.90
9658;DHT22;4867;48.112;11.622;2023-11-21T04:04:37;7.30;99.90
9658;DHT22;4867;48.112;11.622;2023-11-21T04:07:05;7.30;99.90
9658;DHT22;4867;48.112;11.622;2023-11-21T04:09:32;7.20;99.90
9658;DHT22;4867;48.112;11.622;2023-11-21T04:12:00;7.20;99.90
9658;DHT22;4867;48.112;11.622;2023-11-21T04:14:27;7.20;99.90
9658;DHT22;4867;48.112;11.622;2023-11-21T04:16:54;7.20;99.90
9658;DHT22;4867;48.112;11.622;2023-11-21T04:19:22;7.30;99.90
9658;DHT22;4867;48.112;11.622;2023-11-21T04:21:49;7.30;99.90
9658;DHT22;4867;48.112;11.622;2023-11-21T04:24:17;7.40;99.90
9658;DHT22;4867;48.112;11.622;2023-11-21T04:26:44;7.20;99.90
9658;DHT22;4867;48.112;11.622;2023-11-21T04:29:12;7.40;99.90
9658;DHT22;4867;48.112;11.622;2023-11-21T04:31:39;7.30;99.90
9658;DHT22;4867;48.112;11.622;2023-11-21T04:34:06;7.40;99.90
9658;DHT22;4867;48.112;11.622;2023-11-21T04:36:34;7.30;99.90
9658;DHT22;4867;48.112;11.622;2023-11-21T04:39:02;7.30;99.90
9658;DHT22;4867;48.112;11.622;2023-11-21T04:41:29;7.20;99.90
9658;DHT22;4867;48.112;11.622;2023-11-21T04:43:58;7.20;99.90
9658;DHT22;4867;48.112;11.622;2023-11-21T04:46:27;7.20;99.90
9658;DHT22;4867;48.112;11.622;2023-11-21T04:48:55;7.10;99.90
9658;DHT22;4867;48.112;11.622;2023-11-21T04:51:22;7.10;99.90
9658;DHT22;4867;48.112;11.622;2023-11-21T04:53:49;7.10;99.90
9658;DHT22;4867;48.112;11.622;2023-11-21T04:56:16;7.00;99.90
9658;DHT22;4867;48.112;11.622;2023-11-21T04:58:45;7.10;99.90
9658;DHT22;4867;48.112;11.622;2023-11-21T05:01:12;7.10;99.90
9658;DHT22;4867;48.112;11.622;2023-11-21T05:03:40;7.10;99.90
9658;DHT22;4867;48.112;11.622;2023-11-21T05:06:10;7.10;99.90
9658;DHT22;4867;48.112;11.622;2023-11-21T05:08:37;7.20;99.90
9658;DHT22;4867;48.112;11.622;2023-11-21T05:11:05;7.00;99.90
9658;DHT22;4867;48.112;11.622;2023-11-21T05:13:34;7.10;99.90
9658;DHT22;4867;48.112;11.622;2023-11-21T05:16:02;7.10;99.90
9658;DHT22;4867;48.112;11.622;2023-11-21T05:18:31;7.10;99.90
9658;DHT22;4867;48.112;11.622;2023-11-21T05:20:58;7.10;99.90
9658;DHT22;4867;48.112;11.622;2023-11-21T05:23:26;7.10;99.90
9658;DHT22;4867;48.112;11.622;2023-11-21T05:25:53;7.10;99.90
9658;DHT22;4867;48.112;11.622;2023-11-21T05:28:21;7.10;99.90
9658;DHT22;4867;48.112;11.622;2023-11-21T05:30:48;7.10;99.90
9658;DHT22;4867;48.112;11.622;2023-11-21T05:33:21;7.10;99.90
9658;DHT22;4867;48.112;11.622;2023-11-21T05:35:49;7.10;99.90
9658;DHT22;4867;48.112;11.622;2023-11-21T05:38:16;7.10;99.90
9658;DHT22;4867;48.112;11.622;2023-11-21T05:40:43;7.10;99.90
9658;DHT22;4867;48.112;11.622;2023-11-21T05:43:11;7.20;99.90
9658;DHT22;4867;48.112;11.622;2023-11-21T05:45:38;7.20;99.90
9658;DHT22;4867;48.112;11.622;2023-11-21T05:48:06;7.30;99.90
9658;DHT22;4867;48.112;11.622;2023-11-21T05:50:33;7.30;99.90
9658;DHT22;4867;48.112;11.622;2023-11-21T05:53:01;7.30;99.90
9658;DHT22;4867;48.112;11.622;2023-11-21T05:55:28;7.30;99.90
9658;DHT22;4867;48.112;11.622;2023-11-21T05:57:55;7.30;99.90
9658;DHT22;4867;48.112;11.622;2023-11-21T06:00:23;7.20;99.90
9658;DHT22;4867;48.112;11.622;2023-11-21T06:02:53;7.20;99.90
9658;DHT22;4867;48.112;11.622;2023-11-21T06:05:23;7.30;99.90
9658;DHT22;4867;48.112;11.622;2023-11-21T06:07:55;7.20;99.90
9658;DHT22;4867;48.112;11.622;2023-11-21T06:10:29;7.20;99.90
9658;DHT22;4867;48.112;11.622;2023-11-21T06:12:56;7.30;99.90
9658;DHT22;4867;48.112;11.622;2023-11-21T06:15:29;7.20;99.90
9658;DHT22;4867;48.112;11.622;2023-11-21T06:17:56;7.20;99.90
9658;DHT22;4867;48.112;11.622;2023-11-21T06:20:24;7.20;99.90
9658;DHT22;4867;48.112;11.622;2023-11-21T06:22:51;7.20;99.90
9658;DHT22;4867;48.112;11.622;2023-11-21T06:25:21;7.20;99.90
9658;DHT22;4867;48.112;11.622;2023-11-21T06:27:49;7.20;99.90
9658;DHT22;4867;48.112;11.622;2023-11-21T06:30:17;7.20;99.90
9658;DHT22;4867;48.112;11.622;2023-11-21T06:32:46;7.20;99.90
9658;DHT22;4867;48.112;11.622;2023-11-21T06:35:14;7.20;99.90
9658;DHT22;4867;48.112;11.622;2023-11-21T06:37:44;7.20;99.90
9658;DHT22;4867;48.112;11.622;2023-11-21T06:40:17;7.20;99.90
9658;DHT22;4867;48.112;11.622;2023-11-21T06:42:48;7.20;99.90
9658;DHT22;4867;48.112;11.622;2023-11-21T06:45:16;7.20;99.90
9658;DHT22;4867;48.112;11.622;2023-11-21T06:47:44;7.20;99.90
9658;DHT22;4867;48.112;11.622;2023-11-21T06:50:12;7.30;99.90
9658;DHT22;4867;48.112;11.622;2023-11-21T06:52:39;7.40;99.90
9658;DHT22;4867;48.112;11.622;2023-11-21T06:55:07;7.30;99.90
9658;DHT22;4867;48.112;11.622;2023-11-21T06:57:38;7.20;99.90
9658;DHT22;4867;48.112;11.622;2023-11-21T07:00:05;7.30;99.90
9658;DHT22;4867;48.112;11.622;2023-11-21T07:02:36;7.30;99.90
9658;DHT22;4867;48.112;11.622;2023-11-21T07:05:03;7.30;99.90
9658;DHT22;4867;48.112;11.622;2023-11-21T07:07:31;7.40;99.90
9658;DHT22;4867;48.112;11.622;2023-11-21T07:09:58;7.40;99.90
9658;DHT22;4867;48.112;11.622;2023-11-21T07:12:30;7.50;99.90
9658;DHT22;4867;48.112;11.622;2023-11-21T07:14:58;7.50;99.90
9658;DHT22;4867;48.112;11.622;2023-11-21T07:17:25;7.50;99.90
9658;DHT22;4867;48.112;11.622;2023-11-21T07:19:53;7.40;99.90
9658;DHT22;4867;48.112;11.622;2023-11-21T07:22:20;7.50;99.90
9658;DHT22;4867;48.112;11.622;2023-11-21T07:24:49;7.50;99.90
9658;DHT22;4867;48.112;11.622;2023-11-21T07:27:18;7.50;99.90
9658;DHT22;4867;48.112;11.622;2023-11-21T07:29:45;7.50;99.90
9658;DHT22;4867;48.112;11.622;2023-11-21T07:32:12;7.50;99.90
9658;DHT22;4867;48.112;11.622;2023-11-21T07:34:41;7.50;99.90
9658;DHT22;4867;48.112;11.622;2023-11-21T07:37:08;7.50;99.90
9658;DHT22;4867;48.112;11.622;2023-11-21T07:39:36;7.50;99.90
9658;DHT22;4867;48.112;11.622;2023-11-21T07:42:03;7.50;99.90
9658;DHT22;4867;48.112;11.622;2023-11-21T07:44:31;7.50;99.90
9658;DHT22;4867;48.112;11.622;2023-11-21T07:46:59;7.60;99.90
9658;DHT22;4867;48.112;11.622;2023-11-21T07:49:26;7.60;99.90
9658;DHT22;4867;48.112;11.622;2023-11-21T07:51:54;7.60;99.90
9658;DHT22;4867;48.112;11.622;2023-11-21T07:54:21;7.70;99.90
9658;DHT22;4867;48.112;11.622;2023-11-21T07:56:48;7.70;99.90
9658;DHT22;4867;48.112;11.622;2023-11-21T07:59:16;7.70;99.90
9658;DHT22;4867;48.112;11.622;2023-11-21T08:01:44;7.80;99.90
9658;DHT22;4867;48.112;11.622;2023-11-21T08:04:12;7.80;99.90
9658;DHT22;4867;48.112;11.622;2023-11-21T08:06:40;7.80;99.90
9658;DHT22;4867;48.112;11.622;2023-11-21T08:09:08;7.90;99.90
9658;DHT22;4867;48.112;11.622;2023-11-21T08:11:36;7.90;99.90
9658;DHT22;4867;48.112;11.622;2023-11-21T08:14:06;8.00;99.90
9658;DHT22;4867;48.112;11.622;2023-11-21T08:16:33;8.00;99.90
9658;DHT22;4867;48.112;11.622;2023-11-21T08:19:00;8.10;99.90
9658;DHT22;4867;48.112;11.622;2023-11-21T08:21:28;8.20;99.90
9658;DHT22;4867;48.112;11.622;2023-11-21T08:23:56;8.20;99.90
9658;DHT22;4867;48.112;11.622;2023-11-21T08:26:23;8.30;99.90
9658;DHT22;4867;48.112;11.622;2023-11-21T08:28:51;8.20;99.90
9658;DHT22;4867;48.112;11.622;2023-11-21T08:31:26;8.20;99.90
9658;DHT22;4867;48.112;11.622;2023-11-21T08:33:54;8.20;99.90
9658;DHT22;4867;48.112;11.622;2023-11-21T08:36:23;8.20;99.90
9658;DHT22;4867;48.112;11.622;2023-11-21T08:38:51;8.20;99.90
9658;DHT22;4867;48.112;11.622;2023-11-21T08:41:19;8.20;99.90
9658;DHT22;4867;48.112;11.622;2023-11-21T08:43:50;8.20;99.90
9658;DHT22;4867;48.112;11.622;2023-11-21T08:46:18;8.10;99.90
9658;DHT22;4867;48.112;11.622;2023-11-21T08:48:45;8.10;99.90
9658;DHT22;4867;48.112;11.622;2023-11-21T08:51:13;8.10;99.90
9658;DHT22;4867;48.112;11.622;2023-11-21T08:53:41;8.10;99.90
9658;DHT22;4867;48.112;11.622;2023-11-21T08:56:12;8.00;99.90
9658;DHT22;4867;48.112;11.622;2023-11-21T08:58:41;8.10;99.90
9658;DHT22;4867;48.112;11.622;2023-11-21T09:01:09;8.10;99.90
9658;DHT22;4867;48.112;11.622;2023-11-21T09:03:36;8.20;99.90
9658;DHT22;4867;48.112;11.622;2023-11-21T09:06:04;8.20;99.90
9658;DHT22;4867;48.112;11.622;2023-11-21T09:08:32;8.30;99.90
9658;DHT22;4867;48.112;11.622;2023-11-21T09:10:59;8.40;99.90
9658;DHT22;4867;48.112;11.622;2023-11-21T09:13:27;8.60;99.90
9658;DHT22;4867;48.112;11.622;2023-11-21T09:15:54;8.60;99.90
9658;DHT22;4867;48.112;11.622;2023-11-21T09:18:22;8.70;99.90
9658;DHT22;4867;48.112;11.622;2023-11-21T09:20:49;8.70;99.90
9658;DHT22;4867;48.112;11.622;2023-11-21T09:23:17;8.80;99.90
9658;DHT22;4867;48.112;11.622;2023-11-21T09:25:44;8.90;99.90
9658;DHT22;4867;48.112;11.622;2023-11-21T09:28:13;8.90;99.90
9658;DHT22;4867;48.112;11.622;2023-11-21T09:30:41;8.90;99.90
9658;DHT22;4867;48.112;11.622;2023-11-21T09:33:09;9.10;99.90
9658;DHT22;4867;48.112;11.622;2023-11-21T09:35:38;9.00;99.90
9658;DHT22;4867;48.112;11.622;2023-11-21T09:38:05;8.90;99.90
9658;DHT22;4867;48.112;11.622;2023-11-21T09:40:37;9.00;99.90
9658;DHT22;4867;48.112;11.622;2023-11-21T09:43:16;9.00;99.90
9658;DHT22;4867;48.112;11.622;2023-11-21T09:45:46;8.90;99.90
9658;DHT22;4867;48.112;11.622;2023-11-21T09:48:14;8.90;99.90
9658;DHT22;4867;48.112;11.622;2023-11-21T09:50:43;9.00;99.90
9658;DHT22;4867;48.112;11.622;2023-11-21T09:53:15;9.00;99.90
9658;DHT22;4867;48.112;11.622;2023-11-21T09:55:47;9.00;99.90
9658;DHT22;4867;48.112;11.622;2023-11-21T09:58:15;9.00;99.90
9658;DHT22;4867;48.112;11.622;2023-11-21T10:00:44;8.90;99.90
9658;DHT22;4867;48.112;11.622;2023-11-21T10:03:12;8.90;99.90
9658;DHT22;4867;48.112;11.622;2023-11-21T10:05:42;9.00;99.90
9658;DHT22;4867;48.112;11.622;2023-11-21T10:08:11;8.90;99.90
9658;DHT22;4867;48.112;11.622;2023-11-21T10:10:46;8.90;99.90
9658;DHT22;4867;48.112;11.622;2023-11-21T10:13:18;8.80;99.90
9658;DHT22;4867;48.112;11.622;2023-11-21T10:15:50;9.00;99.90
9658;DHT22;4867;48.112;11.622;2023-11-21T10:18:18;8.90;99.90
9658;DHT22;4867;48.112;11.622;2023-11-21T10:20:45;8.90;99.90
9658;DHT22;4867;48.112;11.622;2023-11-21T10:23:21;8.90;99.90
9658;DHT22;4867;48.112;11.622;2023-11-21T10:25:52;9.00;99.90
9658;DHT22;4867;48.112;11.622;2023-11-21T10:28:20;9.10;99.90
9658;DHT22;4867;48.112;11.622;2023-11-21T10:30:49;9.10;99.90
9658;DHT22;4867;48.112;11.622;2023-11-21T10:33:16;9.40;99.90
9658;DHT22;4867;48.112;11.622;2023-11-21T10:35:45;9.50;99.90
9658;DHT22;4867;48.112;11.622;2023-11-21T10:38:19;9.40;99.90
9658;DHT22;4867;48.112;11.622;2023-11-21T10:40:48;9.40;99.90
9658;DHT22;4867;48.112;11.622;2023-11-21T10:43:17;9.50;99.90
9658;DHT22;4867;48.112;11.622;2023-11-21T10:45:44;9.40;99.90
9658;DHT22;4867;48.112;11.622;2023-11-21T10:48:14;9.40;99.90
9658;DHT22;4867;48.112;11.622;2023-11-21T10:50:46;9.60;99.90
9658;DHT22;4867;48.112;11.622;2023-11-21T10:53:14;9.50;99.90
9658;DHT22;4867;48.112;11.622;2023-11-21T10:55:42;9.60;99.90
9658;DHT22;4867;48.112;11.622;2023-11-21T10:58:14;9.50;99.90
9658;DHT22;4867;48.112;11.622;2023-11-21T11:00:41;9.60;99.90
9658;DHT22;4867;48.112;11.622;2023-11-21T11:03:12;9.60;99.90
9658;DHT22;4867;48.112;11.622;2023-11-21T11:05:44;9.50;99.90
9658;DHT22;4867;48.112;11.622;2023-11-21T11:08:21;9.40;99.90
9658;DHT22;4867;48.112;11.622;2023-11-21T11:10:55;9.60;99.90
9658;DHT22;4867;48.112;11.622;2023-11-21T11:13:23;9.60;99.90
9658;DHT22;4867;48.112;11.622;2023-11-21T11:15:51;9.50;99.90
9658;DHT22;4867;48.112;11.622;2023-11-21T11:18:22;9.60;99.90
9658;DHT22;4867;48.112;11.622;2023-11-21T11:20:51;9.70;99.90
9658;DHT22;4867;48.112;11.622;2023-11-21T11:36:47;10.10;99.90
9658;DHT22;4867;48.112;11.622;2023-11-21T11:39:40;10.20;99.90
9658;DHT22;4867;48.112;11.622;2023-11-21T11:42:16;10.00;99.90
9658;DHT22;4867;48.112;11.622;2023-11-21T11:47:16;9.90;99.90
9658;DHT22;4867;48.112;11.622;2023-11-21T11:52:40;9.90;99.90
9658;DHT22;4867;48.112;11.622;2023-11-21T11:55:18;9.80;99.90
9658;DHT22;4867;48.112;11.622;2023-11-21T11:57:48;9.90;99.90
9658;DHT22;4867;48.112;11.622;2023-11-21T12:00:22;9.60;99.90
9658;DHT22;4867;48.112;11.622;2023-11-21T12:03:02;9.80;99.90
9658;DHT22;4867;48.112;11.622;2023-11-21T12:05:32;9.70;99.90
9658;DHT22;4867;48.112;11.622;2023-11-21T12:08:02;9.80;99.90
9658;DHT22;4867;48.112;11.622;2023-11-21T12:10:35;9.80;99.90
9658;DHT22;4867;48.112;11.622;2023-11-21T12:13:05;10.00;99.90
9658;DHT22;4867;48.112;11.622;2023-11-21T12:15:37;10.00;99.90
9658;DHT22;4867;48.112;11.622;2023-11-21T12:18:05;9.80;99.90
9658;DHT22;4867;48.112;11.622;2023-11-21T12:20:33;9.80;99.90
9658;DHT22;4867;48.112;11.622;2023-11-21T12:23:06;9.80;99.90
9658;DHT22;4867;48.112;11.622;2023-11-21T12:25:36;9.70;99.90
9658;DHT22;4867;48.112;11.622;2023-11-21T12:28:04;9.60;99.90
9658;DHT22;4867;48.112;11.622;2023-11-21T12:30:34;9.60;99.90
9658;DHT22;4867;48.112;11.622;2023-11-21T12:33:06;9.70;99.90
9658;DHT22;4867;48.112;11.622;2023-11-21T12:35:35;9.60;99.90
9658;DHT22;4867;48.112;11.622;2023-11-21T12:38:04;9.60;99.90
9658;DHT22;4867;48.112;11.622;2023-11-21T12:40:36;9.90;99.90
9658;DHT22;4867;48.112;11.622;2023-11-21T12:43:03;9.90;99.90
9658;DHT22;4867;48.112;11.622;2023-11-21T12:45:32;9.90;99.90
9658;DHT22;4867;48.112;11.622;2023-11-21T12:48:05;9.80;99.90
9658;DHT22;4867;48.112;11.622;2023-11-21T12:50:37;9.90;99.90
9658;DHT22;4867;48.112;11.622;2023-11-21T12:53:06;10.10;99.90
9658;DHT22;4867;48.112;11.622;2023-11-21T12:55:36;10.20;99.90
9658;DHT22;4867;48.112;11.622;2023-11-21T12:58:06;10.30;99.90
9658;DHT22;4867;48.112;11.622;2023-11-21T13:03:11;10.20;99.90
9658;DHT22;4867;48.112;11.622;2023-11-21T13:05:53;10.20;99.90
9658;DHT22;4867;48.112;11.622;2023-11-21T13:08:23;10.10;99.90
9658;DHT22;4867;48.112;11.622;2023-11-21T13:10:56;9.90;99.90
9658;DHT22;4867;48.112;11.622;2023-11-21T13:13:27;9.50;99.90
9658;DHT22;4867;48.112;11.622;2023-11-21T13:15:56;9.10;99.90
9658;DHT22;4867;48.112;11.622;2023-11-21T13:18:25;8.80;99.90
9658;DHT22;4867;48.112;11.622;2023-11-21T13:20:55;8.70;99.90
9658;DHT22;4867;48.112;11.622;2023-11-21T13:23:23;8.60;99.90
9658;DHT22;4867;48.112;11.622;2023-11-21T13:25:51;8.70;99.90
9658;DHT22;4867;48.112;11.622;2023-11-21T13:28:28;8.50;99.90
9658;DHT22;4867;48.112;11.622;2023-11-21T13:31:00;8.50;99.90
9658;DHT22;4867;48.112;11.622;2023-11-21T13:33:38;8.60;99.90
9658;DHT22;4867;48.112;11.622;2023-11-21T13:36:06;8.60;99.90
9658;DHT22;4867;48.112;11.622;2023-11-21T13:38:38;8.60;99.90
9658;DHT22;4867;48.112;11.622;2023-11-21T13:41:09;8.70;99.90
9658;DHT22;4867;48.112;11.622;2023-11-21T13:43:39;8.80;99.90
9658;DHT22;4867;48.112;11.622;2023-11-21T13:46:07;8.80;99.90
9658;DHT22;4867;48.112;11.622;2023-11-21T13:48:44;8.90;99.90
9658;DHT22;4867;48.112;11.622;2023-11-21T13:51:18;9.00;99.90
9658;DHT22;4867;48.112;11.622;2023-11-21T13:53:47;9.00;99.90
9658;DHT22;4867;48.112;11.622;2023-11-21T13:56:16;9.20;99.90
9658;DHT22;4867;48.112;11.622;2023-11-21T13:58:48;9.10;99.90
9658;DHT22;4867;48.112;11.622;2023-11-21T14:01:21;9.20;99.90
9658;DHT22;4867;48.112;11.622;2023-11-21T14:04:02;9.30;99.90
9658;DHT22;4867;48.112;11.622;2023-11-21T14:06:47;9.40;99.90
9658;DHT22;4867;48.112;11.622;2023-11-21T14:09:20;9.30;99.90
9658;DHT22;4867;48.112;11.622;2023-11-21T14:11:52;9.30;99.90
9658;DHT22;4867;48.112;11.622;2023-11-21T14:14:22;9.40;99.90
9658;DHT22;4867;48.112;11.622;2023-11-21T14:16:49;9.40;99.90
9658;DHT22;4867;48.112;11.622;2023-11-21T14:19:18;9.20;99.90
9658;DHT22;4867;48.112;11.622;2023-11-21T14:21:46;9.00;99.90
9658;DHT22;4867;48.112;11.622;2023-11-21T14:24:14;8.80;99.90
9658;DHT22;4867;48.112;11.622;2023-11-21T14:26:46;8.70;99.90
9658;DHT22;4867;48.112;11.622;2023-11-21T14:29:15;8.60;99.90
9658;DHT22;4867;48.112;11.622;2023-11-21T14:31:47;8.40;99.90
9658;DHT22;4867;48.112;11.622;2023-11-21T14:34:15;8.50;99.90
9658;DHT22;4867;48.112;11.622;2023-11-21T14:36:47;8.30;99.90
9658;DHT22;4867;48.112;11.622;2023-11-21T14:39:16;8.40;99.90
9658;DHT22;4867;48.112;11.622;2023-11-21T14:41:52;8.60;99.90
9658;DHT22;4867;48.112;11.622;2023-11-21T14:44:20;8.50;99.90
9658;DHT22;4867;48.112;11.622;2023-11-21T14:46:50;8.50;99.90
9658;DHT22;4867;48.112;11.622;2023-11-21T14:49:19;8.40;99.90
9658;DHT22;4867;48.112;11.622;2023-11-21T14:51:47;8.40;99.90
9658;DHT22;4867;48.112;11.622;2023-11-21T14:54:31;8.50;99.90
9658;DHT22;4867;48.112;11.622;2023-11-21T14:57:09;8.50;99.90
9658;DHT22;4867;48.112;11.622;2023-11-21T14:59:46;8.50;99.90
9658;DHT22;4867;48.112;11.622;2023-11-21T15:02:24;8.50;99.90
9658;DHT22;4867;48.112;11.622;2023-11-21T15:05:11;8.50;99.90
9658;DHT22;4867;48.112;11.622;2023-11-21T15:07:43;8.60;99.90
9658;DHT22;4867;48.112;11.622;2023-11-21T15:10:12;8.50;99.90
9658;DHT22;4867;48.112;11.622;2023-11-21T15:12:41;8.50;99.90
9658;DHT22;4867;48.112;11.622;2023-11-21T15:15:10;8.50;99.90
9658;DHT22;4867;48.112;11.622;2023-11-21T15:17:38;8.50;99.90
9658;DHT22;4867;48.112;11.622;2023-11-21T15:20:07;8.40;99.90
9658;DHT22;4867;48.112;11.622;2023-11-21T15:22:36;8.50;99.90
9658;DHT22;4867;48.112;11.622;2023-11-21T15:25:04;8.40;99.90
9658;DHT22;4867;48.112;11.622;2023-11-21T15:27:37;8.40;99.90
9658;DHT22;4867;48.112;11.622;2023-11-21T15:30:05;8.40;99.90
9658;DHT22;4867;48.112;11.622;2023-11-21T15:32:32;8.40;99.90
9658;DHT22;4867;48.112;11.622;2023-11-21T15:35:00;8.40;99.90
9658;DHT22;4867;48.112;11.622;2023-11-21T15:37:27;8.30;99.90
9658;DHT22;4867;48.112;11.622;2023-11-21T15:39:56;8.30;99.90
9658;DHT22;4867;48.112;11.622;2023-11-21T15:42:23;8.20;99.90
9658;DHT22;4867;48.112;11.622;2023-11-21T15:44:50;8.20;99.90
9658;DHT22;4867;48.112;11.622;2023-11-21T15:47:18;8.30;99.90
9658;DHT22;4867;48.112;11.622;2023-11-21T15:49:46;8.30;99.90
9658;DHT22;4867;48.112;11.622;2023-11-21T15:52:17;8.30;99.90
9658;DHT22;4867;48.112;11.622;2023-11-21T15:54:46;8.40;99.90
9658;DHT22;4867;48.112;11.622;2023-11-21T15:57:13;8.40;99.90
9658;DHT22;4867;48.112;11.622;2023-11-21T15:59:41;8.50;99.90
9658;DHT22;4867;48.112;11.622;2023-11-21T16:02:11;8.50;99.90
9658;DHT22;4867;48.112;11.622;2023-11-21T16:04:39;8.50;99.90
9658;DHT22;4867;48.112;11.622;2023-11-21T16:07:08;8.50;99.90
9658;DHT22;4867;48.112;11.622;2023-11-21T16:09:37;8.40;99.90
9658;DHT22;4867;48.112;11.622;2023-11-21T16:12:06;8.20;99.90
9658;DHT22;4867;48.112;11.622;2023-11-21T16:14:35;8.10;99.90
9658;DHT22;4867;48.112;11.622;2023-11-21T16:17:04;8.10;99.90
9658;DHT22;4867;48.112;11.622;2023-11-21T16:19:31;8.00;99.90
9658;DHT22;4867;48.112;11.622;2023-11-21T16:21:59;8.00;99.90
9658;DHT22;4867;48.112;11.622;2023-11-21T16:24:27;8.00;99.90
9658;DHT22;4867;48.112;11.622;2023-11-21T16:26:59;8.00;99.90
9658;DHT22;4867;48.112;11.622;2023-11-21T16:29:27;8.00;99.90
9658;DHT22;4867;48.112;11.622;2023-11-21T16:31:57;8.00;99.90
9658;DHT22;4867;48.112;11.622;2023-11-21T16:34:24;8.00;99.90
9658;DHT22;4867;48.112;11.622;2023-11-21T16:36:51;8.00;99.90